BBC Switzerland — DGFL2 — position and weather

sailwx.info

Track history (hours):
 
Tides and Currents Weather Stations Pressure Air Temp Water Temp Dewpoint Dewpoint Depression Visibility Wind Speed Wind Dir Waves Ship Positions

BBC Switzerland

Last reported at 2018-Jan-18 12:36 UTC. Time now 2018-Jan-22 10:28 UTC.
Position N 08°56' W 017°59'.

Length 119 m; draft 6.4 m.

Type: Cargo ship. MMSI: 218629000.

Date/timePositionNaut miles runAvg speedWind from/ knotsBaromVisibWave heightAir tempDewpointWater temp
2018-Jan-18 12:36N 08°56' W 017°59'  
2018-Jan-11 19:28S 05°13' E 011°02'613.4
2018-Jan-11 19:00S 05°18' E 011°06'713.4
2018-Jan-11 18:30S 05°23' E 011°10'713.4
2018-Jan-11 18:00S 05°28' E 011°14'713.5
2018-Jan-11 17:30S 05°34' E 011°18'713.4
2018-Jan-11 17:00S 05°39' E 011°23'713.2
2018-Jan-11 16:30S 05°44' E 011°27'612.9
2018-Jan-11 16:00S 05°44' E 011°33'713.5
2018-Jan-11 15:29S 05°41' E 011°40'613.3
2018-Jan-11 15:00S 05°38' E 011°45'713.3
2018-Jan-11 14:30S 05°36' E 011°51'  
Track history (hours):
 
Tides and Currents Weather Stations Pressure Air Temp Water Temp Dewpoint Dewpoint Depression Visibility Wind Speed Wind Dir Waves Ship Positions

BBC Switzerland

Last reported at 2018-Jan-18 12:36 UTC. Time now 2018-Jan-22 10:28 UTC.
Position N 08°56' W 017°59'.

Length 119 m; draft 6.4 m.

Type: Cargo ship. MMSI: 218629000.

Date/timePositionNaut miles runAvg speedWind from/ knotsBaromVisibWave heightAir tempDewpointWater temp
2018-Jan-18 12:36N 08°56' W 017°59'  
2018-Jan-11 19:28S 05°13' E 011°02'613.4
2018-Jan-11 19:00S 05°18' E 011°06'713.4
2018-Jan-11 18:30S 05°23' E 011°10'713.4
2018-Jan-11 18:00S 05°28' E 011°14'713.5
2018-Jan-11 17:30S 05°34' E 011°18'713.4
2018-Jan-11 17:00S 05°39' E 011°23'713.2
2018-Jan-11 16:30S 05°44' E 011°27'612.9
2018-Jan-11 16:00S 05°44' E 011°33'713.5
2018-Jan-11 15:29S 05°41' E 011°40'613.3
2018-Jan-11 15:00S 05°38' E 011°45'713.3
2018-Jan-11 14:30S 05°36' E 011°51'  

Dump ship's entire track history